Terminal Aerodrome Forecast
Issued by NWS

Home | Current Version | Previous Version | Text Only | Print | Product List | Glossary On
Versions: 1 2 3 4 5 6 7 8 9 10 11 12 13 14 15 16 17 18
000
FTUS43 KOAX 021100
TAFSNY
TAF
KSNY 021132Z 0212/0312 32011KT P6SM SKC
     FM021900 32015G25KT P6SM SCT150
     FM030500 34018G28KT P6SM VCSH BKN035=

USA.gov is the U.S. government's official web portal to all federal, state and local government web resources and services.